Regal Star — ESCM — position and weather

sailwx.info

Track history (hours):
 
Tides and Currents Weather Stations Pressure Air Temp Water Temp Dewpoint Dewpoint Depression Visibility Wind Speed Wind Dir Waves Ship Positions

Regal Star

Last reported at 2015-May-27 00:11 UTC. Time now 2015-May-27 03:43 UTC.
Position N 59°31' E 020°58'.

Length 157 m; draft 6 m.

Type: Ship (hazmat cat A). MMSI: 276554000.

Date/timePositionNaut miles runAvg speedWind from/ knotsBaromVisibWave heightAir tempDewpointWater temp
2015-May-27 00:11N 59°31' E 020°58'1015.9
2015-May-26 23:34N 59°29' E 021°17'1615.9
2015-May-26 22:31N 59°26' E 021°49'1515.8
2015-May-26 21:33N 59°22' E 022°18'54 3.4
2015-May-26 05:29N 59°20' E 024°05'1213.3
2015-May-26 04:34N 59°23' E 023°41'2215.2
2015-May-26 03:05N 59°23' E 022°57'815.1
2015-May-26 02:33N 59°23' E 022°42'2115.3
2015-May-26 01:10N 59°27' E 022°01'915.6
2015-May-26 00:34N 59°30' E 021°43'1515.0
2015-May-25 23:33N 59°34' E 021°15'1515.0
2015-May-25 22:33N 59°38' E 020°46'18 0.8
2015-May-24 23:33N 59°29' E 021°16'1615.7
2015-May-24 22:33N 59°26' E 021°47'1615.5
2015-May-24 21:33N 59°22' E 022°16'3415.4
2015-May-24 19:21N 59°22' E 023°23'1215.6
2015-May-24 18:33N 59°22' E 023°47'0 0.1
2015-May-24 14:30N 59°23' E 023°47'6516.4
2015-May-24 10:33N 59°31' E 021°40'14 1.3
2015-May-23 23:33N 59°29' E 021°13'1515.7
2015-May-23 22:33N 59°26' E 021°42'5 0.2
2015-May-23 00:27N 59°31' E 021°39'12 0.5
2015-May-21 23:31N 59°29' E 021°16'1515.7
2015-May-21 22:33N 59°26' E 021°45'5014.9
2015-May-21 19:12N 59°22' E 023°23'1015.8
2015-May-21 18:33N 59°22' E 023°44'62 3.5
2015-May-21 00:30N 59°30' E 021°42'1515.5
2015-May-20 23:33N 59°35' E 021°14'1815.5
2015-May-20 22:25N 59°39' E 020°41'20 0.9
2015-May-19 23:30N 59°28' E 021°12'88 4.8
2015-May-19 05:20N 59°20' E 024°04'1013.2
2015-May-19 04:33N 59°23' E 023°45'1514.8
2015-May-19 03:33N 59°23' E 023°16'1515.5
2015-May-19 02:34N 59°23' E 022°46'2015.4
2015-May-19 01:17N 59°26' E 022°08'1115.7
2015-May-19 00:34N 59°30' E 021°47'1615.6
2015-May-18 23:33N 59°33' E 021°16'5 0.2
2015-May-17 23:33N 59°28' E 021°21'1616.2
2015-May-17 22:32N 59°25' E 021°53'46 5.7
2015-May-17 14:24N 59°23' E 023°24'4515.7
2015-May-17 11:33N 59°28' E 021°57'1615.8
2015-May-17 10:34N 59°33' E 021°27'  
Track history (hours):
 
Tides and Currents Weather Stations Pressure Air Temp Water Temp Dewpoint Dewpoint Depression Visibility Wind Speed Wind Dir Waves Ship Positions

Regal Star

Last reported at 2015-May-27 00:11 UTC. Time now 2015-May-27 03:43 UTC.
Position N 59°31' E 020°58'.

Length 157 m; draft 6 m.

Type: Ship (hazmat cat A). MMSI: 276554000.

Date/timePositionNaut miles runAvg speedWind from/ knotsBaromVisibWave heightAir tempDewpointWater temp
2015-May-27 00:11N 59°31' E 020°58'1015.9
2015-May-26 23:34N 59°29' E 021°17'1615.9
2015-May-26 22:31N 59°26' E 021°49'1515.8
2015-May-26 21:33N 59°22' E 022°18'54 3.4
2015-May-26 05:29N 59°20' E 024°05'1213.3
2015-May-26 04:34N 59°23' E 023°41'2215.2
2015-May-26 03:05N 59°23' E 022°57'815.1
2015-May-26 02:33N 59°23' E 022°42'2115.3
2015-May-26 01:10N 59°27' E 022°01'915.6
2015-May-26 00:34N 59°30' E 021°43'1515.0
2015-May-25 23:33N 59°34' E 021°15'1515.0
2015-May-25 22:33N 59°38' E 020°46'18 0.8
2015-May-24 23:33N 59°29' E 021°16'1615.7
2015-May-24 22:33N 59°26' E 021°47'1615.5
2015-May-24 21:33N 59°22' E 022°16'3415.4
2015-May-24 19:21N 59°22' E 023°23'1215.6
2015-May-24 18:33N 59°22' E 023°47'0 0.1
2015-May-24 14:30N 59°23' E 023°47'6516.4
2015-May-24 10:33N 59°31' E 021°40'14 1.3
2015-May-23 23:33N 59°29' E 021°13'1515.7
2015-May-23 22:33N 59°26' E 021°42'5 0.2
2015-May-23 00:27N 59°31' E 021°39'12 0.5
2015-May-21 23:31N 59°29' E 021°16'1515.7
2015-May-21 22:33N 59°26' E 021°45'5014.9
2015-May-21 19:12N 59°22' E 023°23'1015.8
2015-May-21 18:33N 59°22' E 023°44'62 3.5
2015-May-21 00:30N 59°30' E 021°42'1515.5
2015-May-20 23:33N 59°35' E 021°14'1815.5
2015-May-20 22:25N 59°39' E 020°41'20 0.9
2015-May-19 23:30N 59°28' E 021°12'88 4.8
2015-May-19 05:20N 59°20' E 024°04'1013.2
2015-May-19 04:33N 59°23' E 023°45'1514.8
2015-May-19 03:33N 59°23' E 023°16'1515.5
2015-May-19 02:34N 59°23' E 022°46'2015.4
2015-May-19 01:17N 59°26' E 022°08'1115.7
2015-May-19 00:34N 59°30' E 021°47'1615.6
2015-May-18 23:33N 59°33' E 021°16'5 0.2
2015-May-17 23:33N 59°28' E 021°21'1616.2
2015-May-17 22:32N 59°25' E 021°53'46 5.7
2015-May-17 14:24N 59°23' E 023°24'4515.7
2015-May-17 11:33N 59°28' E 021°57'1615.8
2015-May-17 10:34N 59°33' E 021°27'  

Dump ship's entire track history